Time;durP1;ratioP1;P1;durP2;ratioP2;P2;SDS_P1;SDS_P2;PMS_P1;PMS_P2;Temp;Humidity;BMP_temperature;BMP_pressure;BME280_temperature;BME280_humidity;BME280_pressure;Samples;Min_cycle;Max_cycle;Signal;HPM_P1;HPM_P2
2021/12/08 00:00:16;;;;;;;37.97;9.00;;;;;;;18.60;48.91;98704.44;5103898;28;20865;-62
2021/12/08 00:02:42;;;;;;;24.43;6.80;;;;;;;18.60;48.74;98715.03;5096423;28;20434;-62
2021/12/08 00:05:07;;;;;;;18.73;6.77;;;;;;;18.64;48.74;98718.69;5093255;28;20944;-62
2021/12/08 00:07:33;;;;;;;27.33;7.73;;;;;;;18.56;49.13;98717.16;5093227;28;20211;-63
2021/12/08 00:10:13;;;;;;;29.40;7.60;;;;;;;18.59;49.21;98714.25;5094785;28;20312;-63
2021/12/08 00:15:24;;;;;;;20.83;6.57;;;;;;;18.58;49.26;98715.50;5104565;28;20430;-63
2021/12/08 00:17:49;;;;;;;29.03;7.50;;;;;;;18.56;49.69;98711.44;5074827;28;20420;-62
2021/12/08 00:20:14;;;;;;;20.33;7.57;;;;;;;18.63;49.51;98717.91;5098285;28;20177;-63
2021/12/08 00:22:40;;;;;;;22.33;7.87;;;;;;;18.61;49.37;98711.78;5092260;28;20170;-63
2021/12/08 00:25:06;;;;;;;21.13;6.20;;;;;;;18.64;49.57;98727.28;5092687;28;20167;-62
2021/12/08 00:27:31;;;;;;;24.63;6.80;;;;;;;18.63;49.50;98723.63;5092847;28;20181;-62
2021/12/08 00:29:57;;;;;;;19.70;7.73;;;;;;;18.62;49.87;98727.69;5090898;28;20174;-62
2021/12/08 00:32:26;;;;;;;25.17;6.70;;;;;;;18.63;49.74;98722.78;5103786;28;20206;-62
2021/12/08 00:34:52;;;;;;;19.43;6.60;;;;;;;18.62;49.57;98727.69;5100687;28;20178;-63
2021/12/08 00:37:17;;;;;;;18.60;6.20;;;;;;;18.57;49.98;98733.84;5094558;28;20481;-63
2021/12/08 00:39:43;;;;;;;24.73;6.73;;;;;;;18.52;50.02;98734.28;5090209;28;20236;-62
2021/12/08 00:42:08;;;;;;;18.27;6.17;;;;;;;18.57;50.31;98733.06;5090001;28;20604;-63
2021/12/08 00:44:34;;;;;;;20.67;7.13;;;;;;;18.56;50.01;98726.50;5099001;28;20166;-62
2021/12/08 00:46:59;;;;;;;17.93;6.40;;;;;;;18.62;49.78;98739.13;5102536;28;20188;-62
2021/12/08 00:49:24;;;;;;;23.17;7.10;;;;;;;18.58;50.33;98729.78;5110028;28;20177;-63
2021/12/08 00:51:50;;;;;;;28.03;6.53;;;;;;;18.52;50.17;98728.56;5113576;28;20197;-63
2021/12/08 00:54:15;;;;;;;20.80;6.50;;;;;;;18.55;50.09;98730.59;5105170;28;20170;-62
2021/12/08 00:56:41;;;;;;;17.00;5.77;;;;;;;18.56;50.20;98729.38;5105480;28;20169;-62
2021/12/08 00:59:06;;;;;;;16.63;5.87;;;;;;;18.57;50.21;98731.00;5108790;28;20229;-62
2021/12/08 01:01:32;;;;;;;22.97;6.13;;;;;;;18.58;50.39;98744.06;5100583;28;20182;-62
2021/12/08 01:03:57;;;;;;;20.37;5.93;;;;;;;18.55;50.49;98756.34;5111537;28;20663;-62
2021/12/08 01:06:22;;;;;;;20.90;6.50;;;;;;;18.54;50.74;98745.31;5105757;28;20181;-62
2021/12/08 01:08:48;;;;;;;17.73;5.90;;;;;;;18.53;50.18;98750.22;5111748;28;20177;-62
2021/12/08 01:11:15;;;;;;;14.87;5.77;;;;;;;18.54;50.74;98757.56;5112743;28;20558;-62
2021/12/08 01:13:41;;;;;;;17.23;6.37;;;;;;;18.53;50.65;98758.81;5105066;28;20227;-62
2021/12/08 01:16:06;;;;;;;15.53;5.40;;;;;;;18.56;50.63;98765.72;5113640;28;20403;-62
2021/12/08 01:18:32;;;;;;;11.87;4.83;;;;;;;18.52;50.85;98771.44;5104034;28;20661;-62
2021/12/08 01:20:59;;;;;;;18.30;5.87;;;;;;;18.60;50.31;98772.22;5097372;28;20203;-62
2021/12/08 01:23:25;;;;;;;12.67;6.37;;;;;;;18.55;50.95;98767.75;5092991;28;20243;-62
2021/12/08 01:25:50;;;;;;;16.23;5.50;;;;;;;18.54;50.88;98782.47;5105820;28;20423;-62
2021/12/08 01:28:19;;;;;;;20.80;6.67;;;;;;;18.57;50.49;98782.44;5113270;28;20169;-62
2021/12/08 01:30:45;;;;;;;18.50;6.50;;;;;;;18.55;50.76;98770.63;5103253;28;20286;-62
2021/12/08 01:33:10;;;;;;;17.57;5.77;;;;;;;18.53;50.57;98758.81;5113656;28;20411;-62
2021/12/08 01:35:36;;;;;;;23.70;6.90;;;;;;;18.54;50.65;98745.31;5110958;28;20581;-62
2021/12/08 01:38:01;;;;;;;20.23;5.83;;;;;;;18.52;50.90;98737.16;5102243;27;20656;-62
2021/12/08 01:40:27;;;;;;;15.50;5.57;;;;;;;18.53;50.84;98735.13;5092731;28;20205;-62
2021/12/08 01:42:56;;;;;;;17.47;5.37;;;;;;;18.51;50.61;98720.44;5098080;28;20183;-62
2021/12/08 01:48:09;;;;;;;13.53;5.50;;;;;;;18.53;50.63;98710.22;5097795;28;20562;-62
2021/12/08 01:50:34;;;;;;;16.77;6.07;;;;;;;18.56;50.82;98702.84;5094209;28;20436;-62
2021/12/08 01:53:00;;;;;;;13.03;5.57;;;;;;;18.53;50.75;98697.97;5097664;28;20467;-63
2021/12/08 01:55:25;;;;;;;14.03;5.77;;;;;;;18.57;50.94;98693.03;5092575;28;20209;-62
2021/12/08 01:57:51;;;;;;;15.43;5.50;;;;;;;18.52;50.67;98685.72;5097309;28;20261;-62
2021/12/08 02:00:23;;;;;;;12.20;5.00;;;;;;;18.55;50.88;98696.31;5095906;28;20612;-62
2021/12/08 02:02:49;;;;;;;18.30;4.93;;;;;;;18.55;51.07;98693.47;5094959;28;20661;-62
2021/12/08 02:05:14;;;;;;;20.23;5.23;;;;;;;18.52;50.88;98696.34;5092947;28;20448;-62
2021/12/08 02:07:40;;;;;;;11.87;5.77;;;;;;;18.53;50.89;98683.69;5108771;28;20170;-62
2021/12/08 02:10:06;;;;;;;14.80;6.10;;;;;;;18.48;50.97;98670.66;5103036;28;20198;-62
2021/12/08 02:12:35;;;;;;;13.47;5.27;;;;;;;18.45;51.27;98662.91;5109770;27;20669;-62
2021/12/08 02:15:00;;;;;;;14.40;4.90;;;;;;;18.48;51.41;98664.13;5102231;28;20433;-62
2021/12/08 02:17:26;;;;;;;10.50;4.83;;;;;;;18.47;51.05;98671.06;5112969;28;20771;-62
2021/12/08 02:19:51;;;;;;;14.47;5.10;;;;;;;18.42;51.07;98663.75;5109048;28;20698;-62
2021/12/08 02:22:17;;;;;;;10.93;4.70;;;;;;;18.46;51.16;98658.81;5110367;28;20162;-62
2021/12/08 02:24:42;;;;;;;12.40;5.03;;;;;;;18.47;51.28;98660.44;5111588;28;20170;-62
2021/12/08 02:27:07;;;;;;;18.10;5.20;;;;;;;18.45;51.06;98656.38;5101462;28;20181;-62
2021/12/08 02:29:40;;;;;;;10.17;4.63;;;;;;;18.44;51.13;98661.31;5111662;28;20173;-62
2021/12/08 02:32:32;;;;;;;13.20;5.10;;;;;;;18.41;51.30;98664.97;5105978;28;20202;-63
2021/12/08 02:46:43;;;;;;;11.23;4.50;;;;;;;18.41;51.10;98655.63;5100546;27;20431;-63
2021/12/08 02:48:46;;;;;;;13.10;4.50;;;;;;;18.42;51.44;98646.59;5111860;28;20472;-62
2021/12/08 02:51:12;;;;;;;14.90;4.83;;;;;;;18.44;51.17;98652.72;5111033;28;20435;-62
2021/12/08 02:53:37;;;;;;;9.20;4.30;;;;;;;18.42;51.45;98649.47;5099189;28;20182;-60
2021/12/08 02:56:03;;;;;;;14.50;5.40;;;;;;;18.45;51.31;98640.06;5091274;28;20240;-60
2021/12/08 02:58:28;;;;;;;17.77;5.63;;;;;;;18.46;51.33;98638.81;5098399;28;20186;-62
2021/12/08 03:00:57;;;;;;;12.87;4.77;;;;;;;18.40;51.17;98639.69;5097087;28;20181;-62
2021/12/08 03:03:23;;;;;;;11.70;5.00;;;;;;;18.44;51.23;98644.16;5111145;27;20632;-62
2021/12/08 03:05:49;;;;;;;12.13;4.67;;;;;;;18.42;51.48;98640.88;5103539;28;20428;-63
2021/12/08 03:08:14;;;;;;;11.67;5.00;;;;;;;18.47;51.20;98643.28;5111437;28;20169;-60
2021/12/08 03:10:43;;;;;;;10.53;4.70;;;;;;;18.45;51.32;98650.66;5111933;28;20192;-60
2021/12/08 03:13:09;;;;;;;11.33;4.53;;;;;;;18.46;51.43;98643.75;5107697;28;20185;-61
2021/12/08 03:15:35;;;;;;;16.93;5.97;;;;;;;18.45;51.18;98648.63;5077239;28;20844;-60
2021/12/08 03:18:00;;;;;;;7.10;3.70;;;;;;;18.51;50.98;98649.78;5090629;28;20173;-60
2021/12/08 03:20:45;;;;;;;10.33;4.30;;;;;;;18.45;51.37;98651.47;5098325;28;20222;-60
2021/12/08 03:23:15;;;;;;;19.40;5.60;;;;;;;18.43;51.47;98662.53;5075951;28;20189;-60
2021/12/08 03:25:43;;;;;;;13.13;3.47;;;;;;;18.46;51.53;98663.75;5100536;28;20427;-60
2021/12/08 03:28:18;;;;;;;10.00;4.50;;;;;;;18.47;51.45;98671.88;5093428;28;20534;-60
2021/12/08 03:30:57;;;;;;;8.90;4.10;;;;;;;18.44;51.43;98672.72;5093249;28;20803;-60
2021/12/08 03:33:22;;;;;;;18.40;4.43;;;;;;;18.43;51.29;98676.81;5105592;28;20848;-60
2021/12/08 03:35:48;;;;;;;8.20;3.77;;;;;;;18.42;51.50;98686.59;5110863;28;20411;-60
2021/12/08 03:38:15;;;;;;;11.23;4.33;;;;;;;18.41;51.40;98684.97;5118161;27;20252;-60
2021/12/08 03:40:41;;;;;;;8.33;4.27;;;;;;;18.40;52.08;98686.22;5103241;28;20427;-60
2021/12/08 03:43:06;;;;;;;11.57;4.60;;;;;;;18.40;51.67;98682.53;5111308;28;20426;-61
2021/12/08 03:45:45;;;;;;;8.43;4.10;;;;;;;18.42;51.65;98683.75;5111756;28;20578;-60
2021/12/08 03:48:13;;;;;;;11.60;3.57;;;;;;;18.41;51.76;98689.91;5085966;28;20228;-61
2021/12/08 03:50:41;;;;;;;14.07;5.20;;;;;;;18.37;51.56;98691.97;5109036;28;20427;-60
2021/12/08 03:53:07;;;;;;;9.17;4.17;;;;;;;18.40;51.51;98702.53;5104608;28;20938;-61
2021/12/08 03:55:32;;;;;;;7.60;3.53;;;;;;;18.36;51.64;98702.56;5081643;28;20438;-61
2021/12/08 03:57:58;;;;;;;11.57;4.77;;;;;;;18.42;51.20;98703.75;5090297;28;20167;-61
2021/12/08 04:00:25;;;;;;;12.27;4.10;;;;;;;18.40;51.68;98694.78;5072639;28;20242;-60
2021/12/08 04:02:50;;;;;;;13.63;4.37;;;;;;;18.34;51.77;98696.47;5078487;27;20182;-60
2021/12/08 04:05:19;;;;;;;9.80;4.10;;;;;;;18.35;51.77;98700.94;5112699;28;20990;-60
2021/12/08 04:07:51;;;;;;;10.87;4.23;;;;;;;18.37;51.59;98695.63;5101437;28;20174;-60
2021/12/08 04:10:19;;;;;;;18.53;4.50;;;;;;;18.35;51.57;98692.38;5090017;28;20843;-60
2021/12/08 04:12:50;;;;;;;10.00;3.80;;;;;;;18.35;51.95;98692.38;5092481;28;20508;-61
2021/12/08 04:15:15;;;;;;;7.53;3.60;;;;;;;18.33;51.66;98679.75;5091855;28;20424;-60
2021/12/08 04:17:43;;;;;;;9.90;4.30;;;;;;;18.40;51.68;98682.53;5095183;28;20419;-61
2021/12/08 04:20:30;;;;;;;9.90;4.17;;;;;;;18.45;51.60;98702.91;5096752;28;20252;-61
2021/12/08 04:22:55;;;;;;;7.67;4.20;;;;;;;18.40;51.36;98696.81;5110395;28;20427;-60
2021/12/08 04:25:26;;;;;;;8.93;3.70;;;;;;;18.38;51.41;98691.56;5107107;28;20428;-60
2021/12/08 04:27:53;;;;;;;8.00;3.80;;;;;;;18.43;51.30;98687.44;5109544;28;20170;-61
2021/12/08 04:30:50;;;;;;;8.60;4.03;;;;;;;18.39;51.60;98684.59;5108675;28;20494;-60
2021/12/08 04:33:15;;;;;;;8.37;3.97;;;;;;;18.37;51.75;98687.03;5095795;28;20460;-61
2021/12/08 04:35:41;;;;;;;8.53;3.40;;;;;;;18.40;51.49;98677.66;5104136;28;20419;-60
2021/12/08 04:38:10;;;;;;;7.37;3.80;;;;;;;18.39;51.70;98669.50;5124869;27;20201;-61
2021/12/08 04:40:52;;;;;;;9.93;3.77;;;;;;;18.39;51.64;98670.31;5119537;27;20269;-60
2021/12/08 04:43:28;;;;;;;12.03;3.80;;;;;;;18.38;51.65;98656.44;5103629;27;20507;-61
2021/12/08 04:46:08;;;;;;;11.07;4.10;;;;;;;18.38;51.95;98656.44;5095771;28;20792;-61
2021/12/08 05:07:59;;;;;;;6.97;3.20;;;;;;;18.40;51.80;98646.22;5070725;28;21070;-60
2021/12/08 05:10:28;;;;;;;7.90;3.43;;;;;;;18.38;51.69;98645.00;5070087;28;20976;-61
2021/12/08 05:12:54;;;;;;;8.07;4.10;;;;;;;18.37;51.94;98629.09;5096808;28;20433;-61
2021/12/08 05:15:32;;;;;;;6.07;3.30;;;;;;;18.36;51.90;98636.06;5111362;28;20415;-60
2021/12/08 05:18:06;;;;;;;6.03;3.50;;;;;;;18.46;51.35;98641.69;5106300;28;20439;-60
2021/12/08 05:20:42;;;;;;;7.00;3.20;;;;;;;18.42;51.61;98640.09;5092916;28;20925;-60
2021/12/08 05:23:14;;;;;;;8.90;3.10;;;;;;;18.41;51.75;98642.13;5108007;28;20455;-60
2021/12/08 05:25:39;;;;;;;8.27;3.90;;;;;;;18.38;51.78;98654.41;5114206;28;20419;-60
2021/12/08 05:28:07;;;;;;;7.17;3.10;;;;;;;18.39;51.48;98646.63;5108254;28;20843;-61
2021/12/08 05:30:45;;;;;;;6.40;3.20;;;;;;;18.37;51.85;98654.81;5090796;28;20186;-61
2021/12/08 05:33:11;;;;;;;6.90;3.70;;;;;;;18.40;51.54;98663.38;5112353;28;20418;-60
2021/12/08 05:35:38;;;;;;;8.93;3.77;;;;;;;18.38;51.67;98647.88;5104886;28;20506;-61
2021/12/08 05:38:03;;;;;;;8.80;4.13;;;;;;;18.35;51.63;98657.28;5124500;27;20188;-61
2021/12/08 05:40:36;;;;;;;7.77;3.53;;;;;;;18.31;51.90;98674.41;5113327;27;20432;-61
2021/12/08 05:43:02;;;;;;;7.10;3.53;;;;;;;18.35;52.11;98680.94;5113183;28;20290;-61
2021/12/08 05:45:27;;;;;;;9.33;3.50;;;;;;;18.39;51.37;98687.47;5111014;28;20436;-61
2021/12/08 05:47:53;;;;;;;6.57;3.00;;;;;;;18.33;52.22;98683.44;5081173;28;20468;-60
2021/12/08 05:50:27;;;;;;;6.07;3.30;;;;;;;18.28;51.77;98695.25;5091389;28;20163;-60
2021/12/08 05:52:54;;;;;;;9.97;3.53;;;;;;;18.32;51.91;98698.09;5097835;28;20199;-60
2021/12/08 05:55:20;;;;;;;7.30;3.43;;;;;;;18.40;51.52;98686.22;5095212;28;20439;-62
2021/12/08 05:57:45;;;;;;;6.13;3.30;;;;;;;18.38;51.38;98685.84;5094770;27;20432;-61
2021/12/08 06:00:14;;;;;;;8.93;2.90;;;;;;;18.38;51.87;98685.00;5113158;27;20567;-61
2021/12/08 06:02:40;;;;;;;7.23;3.07;;;;;;;18.32;51.71;98675.25;5103445;28;20532;-61
2021/12/08 06:05:06;;;;;;;7.70;3.37;;;;;;;18.33;51.68;98652.00;5108238;28;20477;-62
2021/12/08 06:07:32;;;;;;;6.70;3.03;;;;;;;18.41;51.39;98656.41;5101257;28;20837;-62
2021/12/08 06:09:59;;;;;;;8.00;3.10;;;;;;;18.43;51.56;98648.25;5099028;28;20555;-62
2021/12/08 06:12:25;;;;;;;7.20;2.93;;;;;;;18.44;51.64;98661.31;5100235;28;20251;-62
2021/12/08 06:14:55;;;;;;;10.10;3.33;;;;;;;18.42;51.64;98663.75;5096540;28;20421;-62
2021/12/08 06:17:25;;;;;;;7.10;3.57;;;;;;;18.40;51.59;98674.78;5102453;28;20284;-62
2021/12/08 06:19:50;;;;;;;7.63;3.50;;;;;;;18.42;51.47;98663.75;5090909;28;20421;-61
2021/12/08 06:22:17;;;;;;;8.10;3.17;;;;;;;18.42;51.36;98658.03;5108557;27;20414;-62
2021/12/08 06:24:43;;;;;;;6.63;2.77;;;;;;;18.24;51.90;98660.19;5102686;27;20205;-62
2021/12/08 06:27:08;;;;;;;7.73;3.43;;;;;;;18.06;50.07;98659.47;5099301;28;20923;-62
2021/12/08 06:29:34;;;;;;;7.00;3.40;;;;;;;18.34;49.53;98679.34;5089351;27;20169;-61
2021/12/08 06:32:00;;;;;;;8.03;2.87;;;;;;;18.80;49.46;98694.06;5097683;28;20203;-62
2021/12/08 06:34:26;;;;;;;8.80;3.00;;;;;;;18.93;50.88;98695.19;5091594;28;20196;-62
2021/12/08 06:36:55;;;;;;;8.83;3.80;;;;;;;19.02;51.19;98711.84;5108648;27;20423;-63
2021/12/08 06:39:24;;;;;;;7.07;2.93;;;;;;;18.86;51.47;98703.81;5100892;27;20343;-62
2021/12/08 06:41:58;;;;;;;6.00;3.27;;;;;;;18.96;51.81;98711.47;5089655;28;20424;-61
2021/12/08 06:44:28;;;;;;;6.97;2.70;;;;;;;19.01;51.76;98696.72;5092428;28;20425;-61
2021/12/08 06:46:56;;;;;;;4.27;2.47;;;;;;;19.00;51.69;98703.69;5108522;28;20420;-61
2021/12/08 06:49:21;;;;;;;4.50;2.63;;;;;;;18.95;51.54;98703.31;5107644;28;20518;-61
2021/12/08 06:51:55;;;;;;;10.00;2.77;;;;;;;18.98;51.18;98696.75;5102842;28;20548;-61
2021/12/08 06:54:24;;;;;;;8.03;2.87;;;;;;;18.95;51.14;98703.31;5102892;28;20250;-61
2021/12/08 06:56:55;;;;;;;5.40;2.80;;;;;;;18.90;50.87;98701.75;5104775;27;20534;-61
2021/12/08 06:59:24;;;;;;;5.47;3.03;;;;;;;18.91;50.68;98703.34;5108044;28;20896;-62
2021/12/08 07:02:19;;;;;;;6.00;2.40;;;;;;;18.85;50.22;98696.47;5103868;28;20927;-61
2021/12/08 07:05:10;;;;;;;5.67;2.57;;;;;;;19.09;50.90;98677.44;5095367;28;20414;-61
2021/12/08 07:07:35;;;;;;;11.63;2.73;;;;;;;19.07;51.08;98671.34;5094721;28;20518;-61
2021/12/08 07:10:19;;;;;;;4.63;2.87;;;;;;;19.08;50.83;98668.06;5095333;28;20539;-61
2021/12/08 07:12:46;;;;;;;7.63;2.70;;;;;;;19.07;51.86;98671.34;5091142;28;20692;-61
2021/12/08 07:15:18;;;;;;;5.20;2.30;;;;;;;19.04;51.83;98675.88;5090770;28;20531;-61
2021/12/08 07:17:46;;;;;;;6.33;2.47;;;;;;;18.97;51.96;98687.38;5088041;28;20798;-61
2021/12/08 07:20:18;;;;;;;6.30;2.30;;;;;;;18.97;51.40;98667.34;5077563;28;20795;-62
2021/12/08 07:22:47;;;;;;;3.40;2.07;;;;;;;18.95;51.46;98664.09;5100747;28;20777;-61
2021/12/08 07:25:13;;;;;;;3.30;2.20;;;;;;;18.95;51.13;98663.28;5107977;28;20969;-62
2021/12/08 07:27:39;;;;;;;8.10;2.40;;;;;;;18.77;50.98;98671.22;5105492;28;20424;-62
2021/12/08 07:30:14;;;;;;;4.50;2.10;;;;;;;18.72;50.83;98672.47;5108975;28;20446;-61
2021/12/08 07:32:41;;;;;;;6.00;2.30;;;;;;;18.68;50.91;98677.44;5109082;28;20447;-61
2021/12/08 07:35:16;;;;;;;5.47;2.10;;;;;;;18.79;51.09;98678.16;5092506;28;20416;-61
2021/12/08 07:37:42;;;;;;;5.13;2.20;;;;;;;18.84;51.10;98680.56;5083787;28;20493;-61
2021/12/08 07:40:17;;;;;;;6.37;2.30;;;;;;;18.79;50.82;98683.88;5089313;28;20427;-61
2021/12/08 07:42:47;;;;;;;3.33;2.00;;;;;;;18.72;51.19;98683.91;5089192;28;20173;-61
2021/12/08 07:45:15;;;;;;;4.00;2.30;;;;;;;18.80;51.00;98685.50;5102006;28;21201;-61
2021/12/08 07:47:41;;;;;;;3.90;2.20;;;;;;;18.77;51.32;98691.25;5089529;28;20452;-61
2021/12/08 07:50:28;;;;;;;4.33;2.13;;;;;;;18.72;51.30;98695.34;5090735;28;20508;-61
2021/12/08 07:52:53;;;;;;;5.77;2.40;;;;;;;18.72;52.28;98701.06;5096589;28;20289;-62
2021/12/08 07:55:22;;;;;;;6.70;2.13;;;;;;;18.65;52.24;98698.28;5088361;28;20487;-61
2021/12/08 07:57:48;;;;;;;9.30;2.03;;;;;;;18.65;52.31;98695.41;5106905;28;20546;-61
2021/12/08 08:00:27;;;;;;;5.67;2.67;;;;;;;18.68;52.40;98691.72;5112223;28;20504;-61
2021/12/08 08:02:52;;;;;;;6.87;2.67;;;;;;;18.67;52.32;98698.66;5107474;28;20202;-62
2021/12/08 08:05:18;;;;;;;5.83;2.40;;;;;;;18.71;52.45;98699.44;5111346;28;20408;-62
2021/12/08 08:07:44;;;;;;;4.83;2.10;;;;;;;18.67;52.76;98704.38;5108624;28;20174;-61
2021/12/08 08:10:14;;;;;;;6.03;1.90;;;;;;;18.70;52.54;98712.13;5093476;28;20282;-62
2021/12/08 08:12:41;;;;;;;8.10;2.20;;;;;;;18.69;52.65;98713.34;5109050;28;20803;-62
2021/12/08 08:15:10;;;;;;;9.40;2.20;;;;;;;18.68;52.70;98711.75;5117836;28;20459;-61
2021/12/08 08:17:40;;;;;;;4.70;1.70;;;;;;;18.69;52.52;98719.06;5118160;28;20941;-61
2021/12/08 08:20:12;;;;;;;6.10;2.03;;;;;;;18.68;52.53;98716.63;5089203;28;20784;-61
2021/12/08 08:22:37;;;;;;;7.33;2.20;;;;;;;18.70;52.69;98712.13;5100320;28;20472;-61
2021/12/08 08:25:05;;;;;;;5.63;2.20;;;;;;;18.69;52.55;98706.81;5099659;28;20427;-61
2021/12/08 08:27:30;;;;;;;5.10;1.97;;;;;;;18.66;52.58;98705.63;5112456;28;20582;-61
2021/12/08 08:29:56;;;;;;;4.20;2.50;;;;;;;18.70;52.87;98705.56;5100180;28;20416;-62
2021/12/08 08:32:27;;;;;;;3.20;1.70;;;;;;;18.70;52.77;98711.28;5096359;28;20268;-62
2021/12/08 08:34:56;;;;;;;5.07;2.33;;;;;;;18.69;52.67;98710.50;5108091;28;20960;-61
2021/12/08 08:37:22;;;;;;;4.73;2.20;;;;;;;18.71;52.86;98724.38;5109006;27;20430;-61
2021/12/08 08:39:53;;;;;;;4.50;2.00;;;;;;;18.71;52.86;98727.25;5131228;27;20435;-62
2021/12/08 08:42:24;;;;;;;5.20;2.13;;;;;;;18.70;52.74;98732.13;5103126;28;20165;-62
2021/12/08 08:44:55;;;;;;;4.20;2.10;;;;;;;18.71;52.72;98733.75;5096272;28;20393;-61
2021/12/08 08:47:30;;;;;;;7.53;2.03;;;;;;;18.71;52.71;98745.19;5103993;28;20431;-61
2021/12/08 08:49:56;;;;;;;4.70;2.40;;;;;;;18.72;52.77;98746.81;5096530;28;20503;-61
2021/12/08 08:52:24;;;;;;;4.27;2.30;;;;;;;18.74;52.61;98747.22;5099536;28;20543;-62
2021/12/08 08:54:52;;;;;;;4.77;2.23;;;;;;;18.71;52.54;98753.75;5101075;28;20250;-62
2021/12/08 08:57:30;;;;;;;6.00;1.93;;;;;;;18.68;53.02;98754.63;5078587;28;20899;-62
2021/12/08 09:00:02;;;;;;;4.73;1.87;;;;;;;18.68;52.79;98754.63;5097387;28;20980;-62
2021/12/08 09:02:30;;;;;;;3.60;1.90;;;;;;;18.70;52.83;98771.31;5106783;27;20458;-61
2021/12/08 09:05:00;;;;;;;3.47;1.83;;;;;;;18.70;52.82;98775.00;5117316;27;20420;-61
2021/12/08 09:07:32;;;;;;;4.30;1.93;;;;;;;18.69;52.77;98776.25;5108277;28;20502;-61
2021/12/08 09:10:00;;;;;;;3.60;2.03;;;;;;;18.67;52.63;98778.69;5116614;28;20453;-61
2021/12/08 09:12:39;;;;;;;3.93;1.90;;;;;;;18.68;52.52;98776.66;5116811;28;20533;-62
2021/12/08 09:15:24;;;;;;;4.07;2.20;;;;;;;18.65;52.72;98781.16;5117080;28;20415;-62
2021/12/08 09:17:57;;;;;;;3.60;1.80;;;;;;;18.70;52.70;98780.72;5114187;28;20427;-62
2021/12/08 09:20:53;;;;;;;7.70;1.93;;;;;;;18.66;52.63;98771.34;5116738;28;20414;-62
2021/12/08 09:23:23;;;;;;;6.60;1.60;;;;;;;18.70;52.70;98766.44;5105688;28;20427;-62
2021/12/08 09:25:57;;;;;;;6.70;2.00;;;;;;;18.66;52.60;98776.28;5073674;28;20411;-62
2021/12/08 09:28:34;;;;;;;4.30;1.80;;;;;;;18.68;52.67;98766.06;5095881;28;20431;-62
2021/12/08 09:31:10;;;;;;;3.33;1.77;;;;;;;18.62;52.86;98764.84;5098083;28;20448;-62
2021/12/08 09:33:45;;;;;;;3.27;1.70;;;;;;;18.61;52.83;98762.44;5075602;28;20435;-62
2021/12/08 09:36:13;;;;;;;3.00;1.63;;;;;;;18.64;52.76;98768.13;5106625;28;20415;-62
2021/12/08 09:38:44;;;;;;;5.10;2.10;;;;;;;18.64;52.74;98762.41;5130647;27;20427;-63
2021/12/08 09:41:25;;;;;;;4.20;2.00;;;;;;;18.63;52.62;98766.50;5134609;27;20396;-62
2021/12/08 09:44:02;;;;;;;3.07;1.80;;;;;;;18.65;52.56;98761.16;5110901;27;20428;-62
2021/12/08 09:46:37;;;;;;;3.63;1.80;;;;;;;18.63;52.64;98760.78;5074660;28;20499;-62
2021/12/08 09:49:03;;;;;;;3.83;1.80;;;;;;;18.63;52.83;98763.63;5095497;28;20640;-62
2021/12/08 09:51:29;;;;;;;4.10;2.00;;;;;;;18.64;52.83;98768.13;5098209;28;20959;-62
2021/12/08 09:53:54;;;;;;;2.67;1.50;;;;;;;18.68;52.57;98754.63;5092685;28;20637;-62
2021/12/08 09:56:20;;;;;;;4.13;1.80;;;;;;;18.61;52.99;98754.66;5093719;28;20233;-62
2021/12/08 09:58:46;;;;;;;3.90;1.80;;;;;;;18.59;52.82;98762.84;5095242;28;20182;-62
2021/12/08 10:01:15;;;;;;;5.27;2.03;;;;;;;18.62;52.73;98764.84;5112229;28;20412;-63
2021/12/08 10:03:41;;;;;;;3.30;1.73;;;;;;;18.62;52.84;98761.19;5115934;27;20176;-62
2021/12/08 10:06:08;;;;;;;3.83;1.80;;;;;;;18.61;52.96;98762.44;5109300;28;20432;-63
2021/12/08 10:08:33;;;;;;;2.10;1.40;;;;;;;18.63;52.84;98759.97;5100891;28;20426;-62
2021/12/08 10:10:59;;;;;;;3.27;1.50;;;;;;;18.62;53.02;98755.47;5093126;28;20836;-62
2021/12/08 10:13:24;;;;;;;6.20;1.90;;;;;;;18.63;52.73;98754.25;5109585;28;20189;-62
2021/12/08 10:15:50;;;;;;;3.47;1.97;;;;;;;18.63;52.85;98748.53;5103798;28;20174;-62
2021/12/08 10:18:15;;;;;;;2.67;1.47;;;;;;;18.60;52.89;98744.44;5107162;28;20185;-63
2021/12/08 10:20:43;;;;;;;5.40;2.00;;;;;;;18.61;52.84;98743.22;5107815;28;20166;-63
2021/12/08 10:23:09;;;;;;;3.00;1.60;;;;;;;18.61;52.74;98722.41;5100999;28;20649;-62
2021/12/08 10:25:40;;;;;;;3.73;1.90;;;;;;;18.62;52.56;98727.69;5112264;28;20489;-62
2021/12/08 10:28:10;;;;;;;3.50;1.73;;;;;;;18.64;52.99;98722.38;5109122;27;20644;-62
2021/12/08 10:31:03;;;;;;;3.43;1.90;;;;;;;18.62;52.62;98719.13;5104398;28;20423;-62
2021/12/08 10:39:32;;;;;;;3.23;1.93;;;;;;;18.59;52.70;98719.97;5087879;28;20451;-62
2021/12/08 10:42:00;;;;;;;3.63;1.80;;;;;;;18.65;52.33;98718.28;5112688;28;20434;-63
2021/12/08 10:44:44;;;;;;;2.63;1.50;;;;;;;18.62;52.71;98715.47;5108463;28;20436;-62
2021/12/08 10:47:11;;;;;;;3.60;1.90;;;;;;;18.63;52.74;98709.34;5090895;28;20473;-62
2021/12/08 10:54:57;;;;;;;3.87;1.87;;;;;;;18.61;52.48;98723.22;5111914;28;20419;-62
2021/12/08 10:57:34;;;;;;;4.13;1.60;;;;;;;18.60;52.84;98721.59;5114610;27;20420;-62
2021/12/08 11:00:12;;;;;;;3.90;1.60;;;;;;;18.61;52.53;98723.22;5103142;28;20253;-62
2021/12/08 11:02:44;;;;;;;2.57;1.50;;;;;;;18.62;52.97;98726.91;5111720;28;20821;-62
2021/12/08 11:05:25;;;;;;;2.60;1.40;;;;;;;18.62;52.68;98719.13;5094627;28;20917;-62
2021/12/08 11:08:15;;;;;;;3.43;1.70;;;;;;;18.63;52.55;98714.22;5102427;28;20434;-62
2021/12/08 11:10:53;;;;;;;2.87;1.50;;;;;;;18.64;52.61;98721.56;5109178;28;20448;-62
2021/12/08 11:13:26;;;;;;;2.77;1.87;;;;;;;18.57;52.80;98721.63;5109107;28;20780;-62
2021/12/08 11:16:07;;;;;;;3.70;2.03;;;;;;;18.63;52.78;98722.78;5112116;28;20434;-62
2021/12/08 11:18:33;;;;;;;2.70;1.40;;;;;;;18.60;52.71;98730.16;5107947;28;20474;-62
2021/12/08 11:21:05;;;;;;;3.47;1.53;;;;;;;18.65;52.44;98717.47;5102486;28;20412;-62
2021/12/08 11:26:29;;;;;;;3.47;2.00;;;;;;;18.60;52.62;98723.63;5100928;28;20783;-62
2021/12/08 11:29:05;;;;;;;3.20;1.70;;;;;;;18.57;52.78;98722.41;5091633;28;20452;-63
2021/12/08 11:31:44;;;;;;;3.33;1.87;;;;;;;18.61;52.64;98716.69;5093953;28;20997;-62
2021/12/08 11:34:22;;;;;;;4.40;1.43;;;;;;;18.60;52.83;98715.88;5091040;28;20423;-63
2021/12/08 11:36:54;;;;;;;3.70;2.17;;;;;;;18.56;52.94;98714.28;5092793;27;20524;-62
2021/12/08 11:39:30;;;;;;;3.47;2.00;;;;;;;18.62;52.68;98712.59;5110835;28;20431;-62
2021/12/08 11:41:59;;;;;;;3.33;1.80;;;;;;;18.59;52.79;98716.28;5111366;28;20750;-62
2021/12/08 11:44:29;;;;;;;2.83;1.60;;;;;;;18.56;52.96;98709.38;5098884;28;20431;-62
2021/12/08 11:46:58;;;;;;;3.50;1.63;;;;;;;18.52;52.80;98708.56;5090203;28;20421;-63
2021/12/08 11:49:24;;;;;;;3.70;1.50;;;;;;;18.62;52.74;98713.41;5092774;28;20492;-62
2021/12/08 11:51:58;;;;;;;3.40;1.80;;;;;;;18.59;52.91;98711.41;5101310;28;20456;-62
2021/12/08 11:54:28;;;;;;;2.50;1.50;;;;;;;18.62;52.62;98704.81;5090502;28;20207;-62
2021/12/08 11:57:08;;;;;;;2.50;1.60;;;;;;;18.59;52.72;98705.69;5128068;27;20449;-62
2021/12/08 11:59:33;;;;;;;2.50;1.40;;;;;;;18.61;52.98;98706.06;5114568;27;20485;-63
2021/12/08 12:02:14;;;;;;;2.87;1.50;;;;;;;18.57;52.89;98710.19;5132045;27;20418;-62
2021/12/08 12:04:43;;;;;;;3.63;1.40;;;;;;;18.54;53.03;98711.84;5111899;27;20197;-63
2021/12/08 12:07:12;;;;;;;4.00;1.67;;;;;;;18.55;52.65;98707.75;5109889;28;20423;-62
2021/12/08 12:09:38;;;;;;;3.17;1.70;;;;;;;18.61;52.64;98706.06;5089298;28;20489;-62
2021/12/08 12:12:04;;;;;;;2.80;1.70;;;;;;;18.57;52.71;98696.69;5102195;28;20452;-62
2021/12/08 12:14:29;;;;;;;2.63;1.80;;;;;;;18.57;52.83;98693.84;5092882;28;20231;-63
2021/12/08 12:16:55;;;;;;;2.83;1.70;;;;;;;18.57;52.81;98690.97;5091282;28;20184;-62
2021/12/08 12:19:22;;;;;;;2.83;1.60;;;;;;;18.58;52.81;98692.63;5075628;28;20182;-63
2021/12/08 12:22:01;;;;;;;3.93;2.07;;;;;;;18.61;52.72;98697.50;5093211;28;20232;-63
2021/12/08 12:24:53;;;;;;;2.87;1.60;;;;;;;18.59;53.15;98688.53;5101205;28;20427;-62
2021/12/08 12:27:30;;;;;;;3.23;1.67;;;;;;;18.61;52.56;98696.69;5112043;28;20809;-63
2021/12/08 12:30:05;;;;;;;4.17;1.80;;;;;;;18.57;52.78;98699.56;5130244;28;20816;-63
2021/12/08 12:32:43;;;;;;;2.60;1.40;;;;;;;18.60;52.65;98698.72;5110087;28;21270;-62